createdAt,value
2024-01-28T00:01:00.707Z,23.42
2024-01-28T00:06:02.218Z,23.34
2024-01-28T00:11:03.611Z,23.23
2024-01-28T00:16:05.054Z,23.21
2024-01-28T00:21:06.427Z,23.05
2024-01-28T00:26:08.299Z,23.00
2024-01-28T00:31:11.007Z,23.04
2024-01-28T00:36:16.656Z,23.04
2024-01-28T00:41:24.075Z,23.04
2024-01-28T00:46:25.453Z,23.00
2024-01-28T00:51:26.807Z,23.11
2024-01-28T00:56:28.186Z,23.05
2024-01-28T01:01:29.616Z,22.98
2024-01-28T01:06:31.051Z,23.02
2024-01-28T01:11:32.425Z,23.05
2024-01-28T01:16:33.717Z,23.08
2024-01-28T01:21:35.070Z,23.17
2024-01-28T01:26:36.519Z,23.26
2024-01-28T01:31:37.866Z,23.06
2024-01-28T01:36:42.735Z,22.91
2024-01-28T01:41:44.811Z,22.82
2024-01-28T01:46:46.444Z,23.06
2024-01-28T01:51:47.788Z,23.25
2024-01-28T01:56:49.104Z,23.43
2024-01-28T02:01:50.450Z,23.45
2024-01-28T02:06:51.749Z,23.44
2024-01-28T02:11:53.048Z,23.41
2024-01-28T02:16:54.402Z,23.25
2024-01-28T02:21:55.768Z,23.04
2024-01-28T02:26:57.154Z,22.94
2024-01-28T02:31:58.474Z,22.88
2024-01-28T02:36:59.772Z,22.90
2024-01-28T02:42:01.129Z,22.89
2024-01-28T02:47:02.727Z,22.86
2024-01-28T02:52:04.070Z,22.91
2024-01-28T02:57:05.550Z,22.94
2024-01-28T03:02:07.089Z,22.95
2024-01-28T03:07:08.450Z,22.94
2024-01-28T03:12:09.836Z,22.87
2024-01-28T03:17:11.145Z,22.88
2024-01-28T03:22:12.444Z,23.01
2024-01-28T03:27:14.125Z,23.08
2024-01-28T03:32:15.492Z,23.12
2024-01-28T03:37:16.784Z,23.06
2024-01-28T03:42:18.545Z,23.01
2024-01-28T03:47:20.400Z,22.95
2024-01-28T03:52:21.829Z,23.05
2024-01-28T03:57:23.229Z,23.24
2024-01-28T04:02:24.699Z,23.21
2024-01-28T04:07:26.185Z,23.32
2024-01-28T04:12:27.701Z,23.29
2024-01-28T04:17:29.225Z,23.13
2024-01-28T04:22:31.013Z,23.00
2024-01-28T04:27:32.350Z,23.08
2024-01-28T04:32:33.718Z,23.01
2024-01-28T04:37:35.039Z,22.97
2024-01-28T04:42:36.761Z,23.05
2024-01-28T04:47:38.975Z,23.05
2024-01-28T04:52:40.307Z,23.05
2024-01-28T04:57:41.652Z,23.07
2024-01-28T05:02:42.963Z,23.10
2024-01-28T05:07:44.356Z,23.21
2024-01-28T05:12:49.331Z,23.18
2024-01-28T05:17:51.191Z,23.27
2024-01-28T05:22:52.763Z,23.46
2024-01-28T05:27:55.016Z,23.50
2024-01-28T05:32:56.345Z,23.58
2024-01-28T05:37:57.649Z,23.46
2024-01-28T05:42:59.017Z,23.37
2024-01-28T05:48:03.071Z,23.06
2024-01-28T05:53:04.803Z,23.08
2024-01-28T05:58:06.130Z,23.33
2024-01-28T06:03:07.635Z,23.41
2024-01-28T06:08:09.095Z,23.31
2024-01-28T06:13:10.477Z,23.13
2024-01-28T06:18:11.887Z,23.02
2024-01-28T06:23:13.194Z,22.99
2024-01-28T06:28:15.221Z,23.13
2024-01-28T06:33:16.799Z,23.14
2024-01-28T06:38:19.765Z,23.12
2024-01-28T06:43:21.081Z,23.12
2024-01-28T06:48:22.620Z,23.25
2024-01-28T06:53:23.986Z,23.21
2024-01-28T06:58:25.264Z,23.09
2024-01-28T07:03:26.728Z,23.00
2024-01-28T07:08:28.149Z,22.88
2024-01-28T07:13:29.514Z,22.84
2024-01-28T07:18:30.875Z,22.99
2024-01-28T07:23:32.311Z,23.34
2024-01-28T07:28:35.126Z,23.48
2024-01-28T07:33:36.587Z,23.60
2024-01-28T07:38:37.998Z,23.55
2024-01-28T07:43:39.325Z,23.13
2024-01-28T07:48:40.904Z,22.95
2024-01-28T07:53:44.923Z,22.93
2024-01-28T07:58:48.465Z,23.20
2024-01-28T08:03:50.828Z,23.43
2024-01-28T08:08:52.433Z,23.41
2024-01-28T08:13:53.877Z,23.34
2024-01-28T08:18:55.553Z,23.09
2024-01-28T08:23:56.935Z,23.08
2024-01-28T08:28:58.408Z,23.16
2024-01-28T08:34:01.789Z,23.03
2024-01-28T08:39:05.968Z,23.17
2024-01-28T08:44:08.027Z,23.18
2024-01-28T08:49:09.439Z,23.29
2024-01-28T08:54:12.375Z,23.22
2024-01-28T08:59:13.738Z,23.07
2024-01-28T09:04:15.167Z,23.06
2024-01-28T09:09:18.029Z,23.08
2024-01-28T09:14:19.399Z,23.29
2024-01-28T09:19:20.749Z,23.17
2024-01-28T09:24:22.119Z,23.30
2024-01-28T09:29:23.562Z,23.23
2024-01-28T09:34:24.936Z,23.16
2024-01-28T09:39:26.397Z,23.06
2024-01-28T09:44:30.480Z,23.07
2024-01-28T09:49:32.319Z,23.21
2024-01-28T09:54:33.808Z,23.24
2024-01-28T09:59:36.360Z,23.03
2024-01-28T10:04:38.620Z,23.05
2024-01-28T10:09:40.139Z,23.13
2024-01-28T10:14:49.673Z,23.43
2024-01-28T10:19:51.219Z,23.51
2024-01-28T10:24:52.723Z,23.23
2024-01-28T10:29:54.090Z,23.14
2024-01-28T10:34:55.496Z,23.22
2024-01-28T10:39:57.241Z,23.23
2024-01-28T10:45:00.907Z,23.16
2024-01-28T10:50:04.148Z,23.08
2024-01-28T10:55:05.840Z,23.14
2024-01-28T11:00:07.346Z,23.25
2024-01-28T11:05:08.748Z,23.23
2024-01-28T11:10:10.315Z,23.23
2024-01-28T11:15:12.953Z,23.23
2024-01-28T11:20:18.321Z,23.15
2024-01-28T11:25:30.054Z,23.10
2024-01-28T11:30:31.750Z,23.22
2024-01-28T11:35:33.724Z,23.23
2024-01-28T11:40:36.254Z,23.29
2024-01-28T11:45:37.943Z,23.25
2024-01-28T11:50:44.288Z,23.14
2024-01-28T11:55:45.572Z,23.08
2024-01-28T12:00:46.978Z,23.21
2024-01-28T12:05:48.381Z,23.14
2024-01-28T12:10:55.968Z,23.21
2024-01-28T12:15:59.349Z,23.14
2024-01-28T12:21:00.955Z,23.21
2024-01-28T12:26:02.268Z,23.15
2024-01-28T12:31:03.666Z,23.25
2024-01-28T12:36:05.120Z,23.25
2024-01-28T12:41:06.712Z,23.23
2024-01-28T12:46:08.766Z,23.15
2024-01-28T12:51:10.210Z,23.16
2024-01-28T12:56:11.622Z,23.28
2024-01-28T13:01:13.029Z,23.26
2024-01-28T13:06:14.437Z,23.10
2024-01-28T13:11:16.024Z,23.18
2024-01-28T13:16:17.830Z,23.17
2024-01-28T13:21:19.224Z,23.17
2024-01-28T13:26:21.824Z,23.29
2024-01-28T13:31:23.110Z,23.26
2024-01-28T13:36:24.637Z,23.21
2024-01-28T13:41:26.092Z,23.13
2024-01-28T13:46:27.439Z,23.17
2024-01-28T13:51:28.745Z,23.23
2024-01-28T13:56:30.106Z,23.23
2024-01-28T14:01:31.454Z,23.16
2024-01-28T14:06:33.031Z,23.21
2024-01-28T14:11:37.631Z,23.24
2024-01-28T14:16:39.206Z,23.33
2024-01-28T14:21:40.557Z,23.25
2024-01-28T14:26:41.859Z,23.11
2024-01-28T14:31:43.308Z,23.28
2024-01-28T14:36:44.696Z,23.14
2024-01-28T14:41:47.614Z,23.16
2024-01-28T14:46:50.082Z,23.24
2024-01-28T14:51:52.094Z,23.26
2024-01-28T14:56:54.171Z,23.34
2024-01-28T15:01:55.483Z,23.24
2024-01-28T15:06:56.846Z,23.20
2024-01-28T15:11:58.155Z,23.15
2024-01-28T15:16:59.452Z,23.15
2024-01-28T15:22:00.780Z,23.16
2024-01-28T15:27:02.118Z,23.18
2024-01-28T15:32:03.635Z,23.29
2024-01-28T15:37:05.036Z,23.22
2024-01-28T15:42:06.703Z,23.21
2024-01-28T15:47:08.103Z,23.04
2024-01-28T15:52:09.510Z,23.09
2024-01-28T15:57:10.830Z,23.28
2024-01-28T16:02:14.640Z,23.41
2024-01-28T16:07:16.211Z,23.27
2024-01-28T16:12:17.585Z,23.26
2024-01-28T16:17:24.110Z,23.18
2024-01-28T16:22:25.509Z,23.04
2024-01-28T16:27:26.863Z,23.16
2024-01-28T16:32:28.193Z,23.13
2024-01-28T16:37:29.542Z,23.14
2024-01-28T16:42:30.948Z,23.09
2024-01-28T16:47:32.324Z,23.04
2024-01-28T16:52:33.625Z,22.92
2024-01-28T16:57:35.339Z,22.85
2024-01-28T17:02:36.653Z,22.82
2024-01-28T17:07:37.948Z,22.88
2024-01-28T17:12:39.274Z,22.79
2024-01-28T17:17:41.056Z,22.80
2024-01-28T17:22:42.452Z,22.88
2024-01-28T17:27:43.793Z,22.86
2024-01-28T17:32:45.357Z,22.88
2024-01-28T17:37:46.934Z,22.81
2024-01-28T17:42:48.348Z,22.85
2024-01-28T17:47:49.738Z,22.83
2024-01-28T17:52:55.031Z,22.78
2024-01-28T17:57:56.517Z,22.79
2024-01-28T18:02:58.090Z,22.79
2024-01-28T18:07:59.442Z,22.77
2024-01-28T18:13:00.744Z,22.79
2024-01-28T18:18:03.186Z,22.73
2024-01-28T18:23:06.193Z,22.73
2024-01-28T18:28:07.549Z,22.82
2024-01-28T18:33:09.228Z,22.81
2024-01-28T18:38:11.490Z,22.81
2024-01-28T18:43:12.929Z,22.83
2024-01-28T18:48:18.578Z,22.79
2024-01-28T18:53:22.940Z,22.93
2024-01-28T18:58:24.605Z,22.92
2024-01-28T19:03:25.968Z,22.93
2024-01-28T19:08:27.317Z,22.81
2024-01-28T19:13:28.832Z,22.75
2024-01-28T19:18:31.728Z,22.80
2024-01-28T19:23:33.098Z,22.77
2024-01-28T19:28:35.224Z,22.75
2024-01-28T19:33:36.759Z,22.72
2024-01-28T19:38:38.158Z,22.83
2024-01-28T19:43:39.440Z,22.81
2024-01-28T19:48:40.934Z,22.80
2024-01-28T19:53:43.425Z,22.79
2024-01-28T19:58:44.920Z,22.80
2024-01-28T20:03:46.314Z,22.80
2024-01-28T20:08:47.675Z,22.83
2024-01-28T20:13:49.679Z,22.77
2024-01-28T20:18:51.158Z,22.74
2024-01-28T20:23:52.669Z,22.67
2024-01-28T20:28:54.658Z,22.65
2024-01-28T20:33:56.086Z,22.67
2024-01-28T20:38:57.576Z,22.70
2024-01-28T20:43:58.942Z,22.69
2024-01-28T20:49:00.433Z,22.75
2024-01-28T20:54:01.872Z,22.77
2024-01-28T20:59:03.190Z,22.84
2024-01-28T21:04:04.581Z,22.81
2024-01-28T21:09:05.921Z,22.77
2024-01-28T21:14:07.329Z,22.81
2024-01-28T21:19:09.542Z,22.77
2024-01-28T21:24:11.617Z,22.87
2024-01-28T21:29:12.969Z,22.82
2024-01-28T21:34:14.505Z,22.77
2024-01-28T21:39:16.044Z,22.84
2024-01-28T21:44:17.489Z,22.80
2024-01-28T21:49:18.882Z,22.72
2024-01-28T21:54:20.261Z,22.88
2024-01-28T21:59:21.570Z,22.80
2024-01-28T22:04:22.980Z,22.76
2024-01-28T22:09:24.419Z,22.76
2024-01-28T22:14:25.735Z,22.69
2024-01-28T22:19:27.087Z,22.75
2024-01-28T22:24:28.422Z,22.73
2024-01-28T22:29:29.806Z,22.73
2024-01-28T22:34:32.124Z,22.68
2024-01-28T22:39:33.488Z,22.65
2024-01-28T22:44:34.868Z,22.68
2024-01-28T22:49:36.347Z,22.69
2024-01-28T22:54:37.898Z,22.78
2024-01-28T22:59:39.278Z,22.80
2024-01-28T23:04:40.747Z,22.75
2024-01-28T23:09:42.306Z,22.74
2024-01-28T23:14:43.653Z,22.75
2024-01-28T23:19:44.980Z,22.77
2024-01-28T23:24:46.319Z,22.67
2024-01-28T23:29:47.665Z,22.72
2024-01-28T23:34:49.155Z,22.74
2024-01-28T23:39:50.556Z,22.76
2024-01-28T23:44:51.854Z,22.84
2024-01-28T23:49:54.761Z,22.78
2024-01-28T23:54:57.207Z,22.83
2024-01-28T23:59:59.026Z,22.90
